createdAt,value
2022-08-03T00:00:05.390Z,966.66
2022-08-03T00:00:55.356Z,966.68
2022-08-03T00:01:45.354Z,966.68
2022-08-03T00:02:35.390Z,966.65
2022-08-03T00:03:25.411Z,966.64
2022-08-03T00:04:15.324Z,966.64
2022-08-03T00:05:05.346Z,966.65
2022-08-03T00:06:04.851Z,966.67
2022-08-03T00:06:46.305Z,966.67
2022-08-03T00:07:35.287Z,966.66
2022-08-03T00:08:25.285Z,966.64
2022-08-03T00:09:15.286Z,966.66
2022-08-03T00:10:05.265Z,966.65
2022-08-03T00:10:55.255Z,966.69
2022-08-03T00:11:45.246Z,966.67
2022-08-03T00:12:35.254Z,966.67
2022-08-03T00:13:25.234Z,966.66
2022-08-03T00:14:15.216Z,966.64
2022-08-03T00:15:11.256Z,966.68
2022-08-03T00:15:56.200Z,966.66
2022-08-03T00:16:45.197Z,966.66
2022-08-03T00:17:52.122Z,966.66
2022-08-03T00:18:26.177Z,966.67
2022-08-03T00:19:15.183Z,966.69
2022-08-03T00:20:05.165Z,966.64
2022-08-03T00:20:55.146Z,966.64
2022-08-03T00:21:45.146Z,966.66
2022-08-03T00:22:35.127Z,966.66
2022-08-03T00:23:25.127Z,966.69
2022-08-03T00:24:15.157Z,966.67
2022-08-03T00:25:05.107Z,966.66
2022-08-03T00:25:55.104Z,966.64
2022-08-03T00:26:45.087Z,966.62
2022-08-03T00:27:35.084Z,966.61
2022-08-03T00:28:25.067Z,966.65
2022-08-03T00:29:15.076Z,966.62
2022-08-03T00:30:05.047Z,966.60
2022-08-03T00:30:55.046Z,966.63
2022-08-03T00:31:59.151Z,966.65
2022-08-03T00:32:36.027Z,966.65
2022-08-03T00:33:25.019Z,966.61
2022-08-03T00:34:15.029Z,966.58
2022-08-03T00:35:09.812Z,966.62
2022-08-03T00:35:55.995Z,966.61
2022-08-03T00:36:44.983Z,966.60
2022-08-03T00:37:40.909Z,966.59
2022-08-03T00:38:25.962Z,966.59
2022-08-03T00:39:14.976Z,966.57
2022-08-03T00:40:05.532Z,966.63
2022-08-03T00:40:54.937Z,966.64
2022-08-03T00:41:44.928Z,966.60
2022-08-03T00:42:34.926Z,966.61
2022-08-03T00:43:24.913Z,966.61
2022-08-03T00:44:14.906Z,966.62
2022-08-03T00:45:04.906Z,966.60
2022-08-03T00:45:54.895Z,966.62
2022-08-03T00:46:44.875Z,966.63
2022-08-03T00:47:34.896Z,966.64
2022-08-03T00:48:33.488Z,966.62
2022-08-03T00:49:15.919Z,966.64
2022-08-03T00:50:04.841Z,966.62
2022-08-03T00:50:54.835Z,966.62
2022-08-03T00:51:44.834Z,966.59
2022-08-03T00:52:34.815Z,966.62
2022-08-03T00:53:24.799Z,966.61
2022-08-03T00:54:14.796Z,966.59
2022-08-03T00:55:04.785Z,966.59
2022-08-03T00:55:54.779Z,966.59
2022-08-03T00:56:59.590Z,966.61
2022-08-03T00:57:35.765Z,966.56
2022-08-03T00:58:24.749Z,966.56
2022-08-03T00:59:14.743Z,966.58
2022-08-03T01:00:04.726Z,966.58
2022-08-03T01:00:54.760Z,966.59
2022-08-03T01:01:44.807Z,966.56
2022-08-03T01:02:34.707Z,966.58
2022-08-03T01:03:24.693Z,966.56
2022-08-03T01:04:14.685Z,966.57
2022-08-03T01:05:04.674Z,966.55
2022-08-03T01:05:54.673Z,966.53
2022-08-03T01:06:44.676Z,966.55
2022-08-03T01:07:34.655Z,966.54
2022-08-03T01:08:24.644Z,966.53
2022-08-03T01:09:14.633Z,966.49
2022-08-03T01:10:04.615Z,966.51
2022-08-03T01:10:54.625Z,966.51
2022-08-03T01:12:00.299Z,966.50
2022-08-03T01:12:35.612Z,966.52
2022-08-03T01:14:03.494Z,966.46
2022-08-03T01:14:18.426Z,966.50
2022-08-03T01:15:04.565Z,966.49
2022-08-03T01:15:54.593Z,966.47
2022-08-03T01:16:44.547Z,966.48
2022-08-03T01:17:34.565Z,966.48
2022-08-03T01:18:24.525Z,966.49
2022-08-03T01:19:14.525Z,966.48
2022-08-03T01:20:04.505Z,966.49
2022-08-03T01:20:54.504Z,966.52
2022-08-03T01:21:44.495Z,966.48
2022-08-03T01:22:34.485Z,966.47
2022-08-03T01:23:24.493Z,966.43
2022-08-03T01:24:14.467Z,966.43
2022-08-03T01:25:04.464Z,966.48
2022-08-03T01:25:54.729Z,966.46
2022-08-03T01:26:44.442Z,966.48
2022-08-03T01:27:34.465Z,966.47
2022-08-03T01:28:24.422Z,966.48
2022-08-03T01:29:14.415Z,966.47
2022-08-03T01:30:04.404Z,966.48
2022-08-03T01:30:54.404Z,966.48
2022-08-03T01:32:59.008Z,966.48
2022-08-03T01:32:59.082Z,966.51
2022-08-03T01:33:25.380Z,966.46
2022-08-03T01:34:14.634Z,966.48
2022-08-03T01:35:04.351Z,966.45
2022-08-03T01:35:54.362Z,966.42
2022-08-03T01:36:44.333Z,966.46
2022-08-03T01:37:34.324Z,966.47
2022-08-03T01:38:24.312Z,966.48
2022-08-03T01:39:14.303Z,966.50
2022-08-03T01:40:04.294Z,966.48
2022-08-03T01:40:54.304Z,966.43
2022-08-03T01:41:44.275Z,966.44
2022-08-03T01:42:34.272Z,966.43
2022-08-03T01:43:55.388Z,966.42
2022-08-03T01:44:29.302Z,966.45
2022-08-03T01:45:05.244Z,966.42
2022-08-03T01:45:54.254Z,966.44
2022-08-03T01:46:47.546Z,966.39
2022-08-03T01:47:34.212Z,966.39
2022-08-03T01:48:24.203Z,966.40
2022-08-03T01:49:14.227Z,966.38
2022-08-03T01:50:04.184Z,966.40
2022-08-03T01:50:54.175Z,966.41
2022-08-03T01:52:04.378Z,966.39
2022-08-03T01:52:35.161Z,966.38
2022-08-03T01:53:24.143Z,966.39
2022-08-03T01:54:14.142Z,966.39
2022-08-03T01:55:04.124Z,966.40
2022-08-03T01:55:54.120Z,966.39
2022-08-03T01:56:44.123Z,966.36
2022-08-03T01:57:34.102Z,966.35
2022-08-03T01:58:25.092Z,966.37
2022-08-03T01:59:14.084Z,966.32
2022-08-03T02:00:04.100Z,966.34
2022-08-03T02:00:54.106Z,966.33
2022-08-03T02:02:16.057Z,966.30
2022-08-03T02:02:35.217Z,966.30
2022-08-03T02:03:24.044Z,966.29
2022-08-03T02:04:14.044Z,966.24
2022-08-03T02:05:04.015Z,966.26
2022-08-03T02:06:11.496Z,966.23
2022-08-03T02:07:01.755Z,966.26
2022-08-03T02:07:34.992Z,966.29
2022-08-03T02:08:23.992Z,966.24
2022-08-03T02:09:13.973Z,966.24
2022-08-03T02:10:03.961Z,966.27
2022-08-03T02:10:53.961Z,966.30
2022-08-03T02:11:43.942Z,966.27
2022-08-03T02:12:33.953Z,966.28
2022-08-03T02:13:23.931Z,966.26
2022-08-03T02:14:13.913Z,966.31
2022-08-03T02:15:03.909Z,966.29
2022-08-03T02:15:53.912Z,966.27
2022-08-03T02:16:43.890Z,966.30
2022-08-03T02:17:38.674Z,966.31
2022-08-03T02:18:24.863Z,966.33
2022-08-03T02:19:13.861Z,966.31
2022-08-03T02:20:03.852Z,966.30
2022-08-03T02:20:54.032Z,966.32
2022-08-03T02:21:56.949Z,966.31
2022-08-03T02:22:34.830Z,966.35
2022-08-03T02:23:23.822Z,966.35
2022-08-03T02:24:13.811Z,966.33
2022-08-03T02:25:03.799Z,966.35
2022-08-03T02:25:53.793Z,966.38
2022-08-03T02:26:43.791Z,966.33
2022-08-03T02:27:33.772Z,966.31
2022-08-03T02:28:23.764Z,966.33
2022-08-03T02:29:13.760Z,966.32
2022-08-03T02:30:03.741Z,966.34
2022-08-03T02:30:53.940Z,966.30
2022-08-03T02:31:43.721Z,966.29
2022-08-03T02:32:33.721Z,966.29
2022-08-03T02:33:23.705Z,966.28
2022-08-03T02:34:13.699Z,966.30
2022-08-03T02:35:03.711Z,966.30
2022-08-03T02:35:53.680Z,966.29
2022-08-03T02:36:43.770Z,966.26
2022-08-03T02:37:33.662Z,966.31
2022-08-03T02:38:23.650Z,966.25
2022-08-03T02:39:13.643Z,966.26
2022-08-03T02:40:03.632Z,966.29
2022-08-03T02:40:53.641Z,966.33
2022-08-03T02:41:43.611Z,966.25
2022-08-03T02:42:33.609Z,966.24
2022-08-03T02:43:23.590Z,966.23
2022-08-03T02:44:13.597Z,966.26
2022-08-03T02:45:03.571Z,966.22
2022-08-03T02:45:53.581Z,966.25
2022-08-03T02:46:43.580Z,966.19
2022-08-03T02:47:53.350Z,966.19
2022-08-03T02:48:24.540Z,966.15
2022-08-03T02:49:40.830Z,966.19
2022-08-03T02:50:04.583Z,966.18
2022-08-03T02:50:53.510Z,966.17
2022-08-03T02:51:43.500Z,966.20
2022-08-03T02:52:33.510Z,966.18
2022-08-03T02:53:23.479Z,966.20
2022-08-03T02:54:13.480Z,966.21
2022-08-03T02:55:03.460Z,966.16
2022-08-03T02:55:53.459Z,966.21
2022-08-03T02:56:43.458Z,966.14
2022-08-03T02:57:33.440Z,966.20
2022-08-03T02:58:23.437Z,966.19
2022-08-03T02:59:13.420Z,966.21
2022-08-03T03:00:03.409Z,966.20
2022-08-03T03:00:53.458Z,966.20
2022-08-03T03:01:43.417Z,966.22
2022-08-03T03:02:33.389Z,966.18
2022-08-03T03:03:23.388Z,966.18
2022-08-03T03:04:13.368Z,966.22
2022-08-03T03:05:55.074Z,966.15
2022-08-03T03:05:57.522Z,966.18
2022-08-03T03:06:43.333Z,966.17
2022-08-03T03:07:33.960Z,966.11
2022-08-03T03:08:25.977Z,966.12
2022-08-03T03:09:13.327Z,966.12
2022-08-03T03:10:03.299Z,966.11
2022-08-03T03:10:55.502Z,966.18
2022-08-03T03:11:43.279Z,966.14
2022-08-03T03:12:33.278Z,966.17
2022-08-03T03:13:23.279Z,966.13
2022-08-03T03:14:13.259Z,966.17
2022-08-03T03:15:03.247Z,966.17
2022-08-03T03:15:53.254Z,966.17
2022-08-03T03:16:43.219Z,966.16
2022-08-03T03:17:33.227Z,966.17
2022-08-03T03:18:23.274Z,966.17
2022-08-03T03:19:13.218Z,966.17
2022-08-03T03:20:03.187Z,966.17
2022-08-03T03:20:53.211Z,966.15
2022-08-03T03:21:43.169Z,966.20
2022-08-03T03:22:33.169Z,966.19
2022-08-03T03:23:23.153Z,966.19
2022-08-03T03:24:13.147Z,966.17
2022-08-03T03:25:03.138Z,966.15
2022-08-03T03:25:53.150Z,966.13
2022-08-03T03:26:43.118Z,966.11
2022-08-03T03:27:33.108Z,966.12
2022-08-03T03:28:23.095Z,966.12
2022-08-03T03:29:13.088Z,966.09
2022-08-03T03:30:03.118Z,966.12
2022-08-03T03:30:53.541Z,966.17
2022-08-03T03:31:43.058Z,966.15
2022-08-03T03:32:33.056Z,966.14
2022-08-03T03:33:23.039Z,966.16
2022-08-03T03:34:13.035Z,966.15
2022-08-03T03:35:03.106Z,966.15
2022-08-03T03:35:53.035Z,966.17
2022-08-03T03:36:43.006Z,966.17
2022-08-03T03:37:32.998Z,966.18
2022-08-03T03:38:22.987Z,966.18
2022-08-03T03:39:15.382Z,966.21
2022-08-03T03:40:02.986Z,966.21
2022-08-03T03:40:52.990Z,966.22
2022-08-03T03:41:42.949Z,966.24
2022-08-03T03:42:32.947Z,966.22
2022-08-03T03:43:22.927Z,966.21
2022-08-03T03:44:12.927Z,966.22
2022-08-03T03:45:02.907Z,966.23
2022-08-03T03:45:52.907Z,966.25
2022-08-03T03:46:42.907Z,966.23
2022-08-03T03:47:33.122Z,966.24
2022-08-03T03:48:22.877Z,966.25
2022-08-03T03:49:12.925Z,966.23
2022-08-03T03:50:02.856Z,966.28
2022-08-03T03:50:52.867Z,966.31
2022-08-03T03:51:42.837Z,966.31
2022-08-03T03:52:32.837Z,966.31
2022-08-03T03:53:22.827Z,966.27
2022-08-03T03:54:12.846Z,966.30
2022-08-03T03:55:02.804Z,966.32
2022-08-03T03:56:02.208Z,966.30
2022-08-03T03:56:43.785Z,966.28
2022-08-03T03:57:32.777Z,966.24
2022-08-03T03:58:22.765Z,966.26
2022-08-03T03:59:12.756Z,966.23
2022-08-03T04:00:02.757Z,966.30
2022-08-03T04:00:52.774Z,966.26
2022-08-03T04:01:42.746Z,966.27
2022-08-03T04:02:32.717Z,966.29
2022-08-03T04:03:22.896Z,966.28
2022-08-03T04:04:12.698Z,966.27
2022-08-03T04:05:02.696Z,966.26
2022-08-03T04:05:52.683Z,966.25
2022-08-03T04:06:42.676Z,966.27
2022-08-03T04:07:32.666Z,966.29
2022-08-03T04:08:22.655Z,966.28
2022-08-03T04:09:12.664Z,966.29
2022-08-03T04:10:14.399Z,966.28
2022-08-03T04:10:53.644Z,966.33
2022-08-03T04:11:42.625Z,966.31
2022-08-03T04:12:32.612Z,966.27
2022-08-03T04:13:22.604Z,966.26
2022-08-03T04:14:12.588Z,966.24
2022-08-03T04:15:02.586Z,966.24
2022-08-03T04:15:52.588Z,966.28
2022-08-03T04:16:44.022Z,966.28
2022-08-03T04:17:32.554Z,966.29
2022-08-03T04:18:22.566Z,966.35
2022-08-03T04:19:12.546Z,966.32
2022-08-03T04:20:02.555Z,966.30
2022-08-03T04:20:52.522Z,966.30
2022-08-03T04:21:42.525Z,966.28
2022-08-03T04:22:32.516Z,966.28
2022-08-03T04:23:22.494Z,966.32
2022-08-03T04:24:12.475Z,966.26
2022-08-03T04:25:02.484Z,966.30
2022-08-03T04:25:52.463Z,966.30
2022-08-03T04:26:42.456Z,966.34
2022-08-03T04:27:32.455Z,966.34
2022-08-03T04:28:31.070Z,966.36
2022-08-03T04:29:13.429Z,966.34
2022-08-03T04:30:02.423Z,966.38
2022-08-03T04:30:52.405Z,966.34
2022-08-03T04:31:42.403Z,966.37
2022-08-03T04:32:32.415Z,966.37
2022-08-03T04:33:22.386Z,966.37
2022-08-03T04:34:12.373Z,966.38
2022-08-03T04:35:02.367Z,966.38
2022-08-03T04:36:01.105Z,966.42
2022-08-03T04:36:43.344Z,966.38
2022-08-03T04:37:32.333Z,966.40
2022-08-03T04:38:22.344Z,966.41
2022-08-03T04:39:12.316Z,966.43
2022-08-03T04:40:02.313Z,966.45
2022-08-03T04:40:52.294Z,966.45
2022-08-03T04:42:04.404Z,966.42
2022-08-03T04:42:33.274Z,966.40
2022-08-03T04:43:22.274Z,966.44
2022-08-03T04:44:12.261Z,966.43
2022-08-03T04:45:02.254Z,966.43
2022-08-03T04:45:52.244Z,966.43
2022-08-03T04:46:42.346Z,966.39
2022-08-03T04:47:33.235Z,966.43
2022-08-03T04:48:22.235Z,966.47
2022-08-03T04:49:12.261Z,966.42
2022-08-03T04:50:02.205Z,966.44
2022-08-03T04:50:52.203Z,966.48
2022-08-03T04:51:42.183Z,966.43
2022-08-03T04:52:32.168Z,966.45
2022-08-03T04:53:22.165Z,966.45
2022-08-03T04:54:12.164Z,966.43
2022-08-03T04:55:02.144Z,966.49
2022-08-03T04:55:52.132Z,966.46
2022-08-03T04:56:42.134Z,966.50
2022-08-03T04:57:32.123Z,966.47
2022-08-03T04:58:22.103Z,966.51
2022-08-03T04:59:12.091Z,966.55
2022-08-03T05:00:03.640Z,966.52
2022-08-03T05:00:52.089Z,966.51
2022-08-03T05:01:42.206Z,966.56
2022-08-03T05:02:32.173Z,966.53
2022-08-03T05:03:24.458Z,966.58
2022-08-03T05:04:12.054Z,966.55
2022-08-03T05:05:02.036Z,966.58
2022-08-03T05:05:52.035Z,966.58
2022-08-03T05:06:48.343Z,966.56
2022-08-03T05:07:36.377Z,966.56
2022-08-03T05:08:27.874Z,966.56
2022-08-03T05:09:13.002Z,966.62
2022-08-03T05:10:03.283Z,966.62
2022-08-03T05:10:51.983Z,966.60
2022-08-03T05:11:41.961Z,966.61
2022-08-03T05:12:33.224Z,966.59
2022-08-03T05:13:21.943Z,966.59
2022-08-03T05:14:11.930Z,966.62
2022-08-03T05:15:01.926Z,966.61
2022-08-03T05:15:51.903Z,966.61
2022-08-03T05:16:41.921Z,966.60
2022-08-03T05:17:31.892Z,966.62
2022-08-03T05:18:21.882Z,966.59
2022-08-03T05:19:11.873Z,966.61
2022-08-03T05:20:01.873Z,966.59
2022-08-03T05:20:51.854Z,966.60
2022-08-03T05:21:52.332Z,966.59
2022-08-03T05:22:32.843Z,966.55
2022-08-03T05:23:21.832Z,966.60
2022-08-03T05:24:11.813Z,966.53
2022-08-03T05:25:01.812Z,966.53
2022-08-03T05:25:51.801Z,966.59
2022-08-03T05:26:41.822Z,966.56
2022-08-03T05:27:31.782Z,966.59
2022-08-03T05:28:21.774Z,966.57
2022-08-03T05:29:11.764Z,966.59
2022-08-03T05:30:29.673Z,966.60
2022-08-03T05:30:52.741Z,966.59
2022-08-03T05:31:41.743Z,966.56
2022-08-03T05:32:31.751Z,966.52
2022-08-03T05:33:21.721Z,966.54
2022-08-03T05:34:11.702Z,966.50
2022-08-03T05:35:56.195Z,966.49
2022-08-03T05:35:57.443Z,966.46
2022-08-03T05:36:42.683Z,966.48
2022-08-03T05:37:31.670Z,966.51
2022-08-03T05:38:27.987Z,966.49
2022-08-03T05:39:12.652Z,966.48
2022-08-03T05:40:01.652Z,966.46
2022-08-03T05:40:57.585Z,966.51
2022-08-03T05:41:42.629Z,966.47
2022-08-03T05:42:31.622Z,966.50
2022-08-03T05:43:21.611Z,966.46
2022-08-03T05:44:11.592Z,966.46
2022-08-03T05:45:01.594Z,966.49
2022-08-03T05:46:11.687Z,966.48
2022-08-03T05:46:42.572Z,966.48
2022-08-03T05:47:31.563Z,966.48
2022-08-03T05:48:21.554Z,966.47
2022-08-03T05:49:11.599Z,966.46
2022-08-03T05:50:01.543Z,966.48
2022-08-03T05:50:51.523Z,966.48
2022-08-03T05:51:41.542Z,966.52
2022-08-03T05:52:31.506Z,966.48
2022-08-03T05:53:21.502Z,966.50
2022-08-03T05:54:11.501Z,966.50
2022-08-03T05:55:01.481Z,966.46
2022-08-03T05:55:56.150Z,966.50
2022-08-03T05:56:42.469Z,966.48
2022-08-03T05:57:31.470Z,966.48
2022-08-03T05:58:21.451Z,966.47
2022-08-03T05:59:35.733Z,966.46
2022-08-03T06:00:02.441Z,966.48
2022-08-03T06:00:51.411Z,966.46
2022-08-03T06:01:41.448Z,966.48
2022-08-03T06:02:31.400Z,966.48
2022-08-03T06:03:21.390Z,966.48
2022-08-03T06:04:11.380Z,966.48
2022-08-03T06:05:01.396Z,966.46
2022-08-03T06:05:59.952Z,966.42
2022-08-03T06:06:42.360Z,966.40
2022-08-03T06:07:31.341Z,966.41
2022-08-03T06:08:21.350Z,966.38
2022-08-03T06:09:11.321Z,966.42
2022-08-03T06:10:36.292Z,966.43
2022-08-03T06:10:52.321Z,966.41
2022-08-03T06:11:41.301Z,966.41
2022-08-03T06:12:31.291Z,966.40
2022-08-03T06:13:21.308Z,966.39
2022-08-03T06:14:11.282Z,966.39
2022-08-03T06:15:01.270Z,966.40
2022-08-03T06:15:51.250Z,966.36
2022-08-03T06:16:41.251Z,966.38
2022-08-03T06:17:37.181Z,966.39
2022-08-03T06:18:22.260Z,966.43
2022-08-03T06:19:11.230Z,966.36
2022-08-03T06:20:01.213Z,966.39
2022-08-03T06:20:51.211Z,966.39
2022-08-03T06:21:41.198Z,966.42
2022-08-03T06:22:31.182Z,966.42
2022-08-03T06:23:21.181Z,966.39
2022-08-03T06:24:11.161Z,966.40
2022-08-03T06:25:03.491Z,966.40
2022-08-03T06:25:51.148Z,966.42
2022-08-03T06:26:41.160Z,966.43
2022-08-03T06:27:37.189Z,966.42
2022-08-03T06:28:52.733Z,966.43
2022-08-03T06:29:12.111Z,966.44
2022-08-03T06:30:01.110Z,966.39
2022-08-03T06:30:51.090Z,966.34
2022-08-03T06:31:41.101Z,966.38
2022-08-03T06:32:31.074Z,966.36
2022-08-03T06:33:21.070Z,966.33
2022-08-03T06:34:32.505Z,966.32
2022-08-03T06:35:02.050Z,966.32
2022-08-03T06:35:51.040Z,966.31
2022-08-03T06:36:41.050Z,966.26
2022-08-03T06:37:31.020Z,966.31
2022-08-03T06:38:21.019Z,966.28
2022-08-03T06:39:11.017Z,966.27
2022-08-03T06:40:01.049Z,966.27
2022-08-03T06:40:50.990Z,966.30
2022-08-03T06:41:44.756Z,966.33
2022-08-03T06:42:30.991Z,966.29
2022-08-03T06:43:20.968Z,966.28
2022-08-03T06:44:10.974Z,966.28
2022-08-03T06:45:00.962Z,966.30
2022-08-03T06:45:50.938Z,966.29
2022-08-03T06:46:40.937Z,966.28
2022-08-03T06:47:30.921Z,966.30
2022-08-03T06:48:20.922Z,966.30
2022-08-03T06:49:10.992Z,966.28
2022-08-03T06:50:12.695Z,966.31
2022-08-03T06:50:51.890Z,966.28
2022-08-03T06:52:05.740Z,966.28
2022-08-03T06:52:38.059Z,966.21
2022-08-03T06:53:21.867Z,966.24
2022-08-03T06:54:10.850Z,966.25
2022-08-03T06:55:00.859Z,966.17
2022-08-03T06:55:54.411Z,966.18
2022-08-03T06:56:40.849Z,966.16
2022-08-03T06:57:30.820Z,966.20
2022-08-03T06:58:20.821Z,966.17
2022-08-03T07:00:08.022Z,966.23
2022-08-03T07:00:08.708Z,966.21
2022-08-03T07:00:51.799Z,966.21
2022-08-03T07:01:40.830Z,966.20
2022-08-03T07:02:30.790Z,966.16
2022-08-03T07:03:20.865Z,966.20
2022-08-03T07:04:10.757Z,966.21
2022-08-03T07:05:00.750Z,966.19
2022-08-03T07:05:50.749Z,966.16
2022-08-03T07:06:40.760Z,966.16
2022-08-03T07:07:30.720Z,966.20
2022-08-03T07:08:33.800Z,966.16
2022-08-03T07:09:11.706Z,966.21
2022-08-03T07:10:00.699Z,966.20
2022-08-03T07:10:50.691Z,966.17
2022-08-03T07:11:40.689Z,966.15
2022-08-03T07:12:30.684Z,966.17
2022-08-03T07:13:20.670Z,966.16
2022-08-03T07:14:10.700Z,966.12
2022-08-03T07:15:02.138Z,966.15
2022-08-03T07:15:55.403Z,966.16
2022-08-03T07:16:41.630Z,966.11
2022-08-03T07:17:30.632Z,966.15
2022-08-03T07:18:27.573Z,966.15
2022-08-03T07:19:11.598Z,966.12
2022-08-03T07:20:00.600Z,966.11
2022-08-03T07:20:50.580Z,966.13
2022-08-03T07:21:40.579Z,966.11
2022-08-03T07:22:30.580Z,966.05
2022-08-03T07:23:20.559Z,966.06
2022-08-03T07:24:10.547Z,966.05
2022-08-03T07:25:00.539Z,966.05
2022-08-03T07:25:50.527Z,966.06
2022-08-03T07:26:40.539Z,966.06
2022-08-03T07:27:30.548Z,966.09
2022-08-03T07:28:20.511Z,966.05
2022-08-03T07:29:14.819Z,966.04
2022-08-03T07:30:01.600Z,966.08
2022-08-03T07:30:50.470Z,966.06
2022-08-03T07:31:40.459Z,966.04
2022-08-03T07:32:30.469Z,966.06
2022-08-03T07:33:20.458Z,966.05
2022-08-03T07:34:10.449Z,966.06
2022-08-03T07:35:01.426Z,966.02
2022-08-03T07:35:50.420Z,966.05
2022-08-03T07:36:40.409Z,966.07
2022-08-03T07:37:30.400Z,966.05
2022-08-03T07:38:21.169Z,966.05
2022-08-03T07:39:17.455Z,966.02
2022-08-03T07:40:01.369Z,966.01
2022-08-03T07:40:50.359Z,966.03
2022-08-03T07:41:41.375Z,966.03
2022-08-03T07:42:30.340Z,966.01
2022-08-03T07:43:20.333Z,966.01
2022-08-03T07:44:10.322Z,966.00
2022-08-03T07:45:00.344Z,965.97
2022-08-03T07:45:50.301Z,965.98
2022-08-03T07:46:40.298Z,965.99
2022-08-03T07:47:35.571Z,965.98
2022-08-03T07:48:21.302Z,965.95
2022-08-03T07:49:10.322Z,965.99
2022-08-03T07:50:00.262Z,965.94
2022-08-03T07:50:50.259Z,965.96
2022-08-03T07:51:40.232Z,965.96
2022-08-03T07:52:30.231Z,965.92
2022-08-03T07:53:20.219Z,965.88
2022-08-03T07:54:10.254Z,965.88
2022-08-03T07:55:00.189Z,965.84
2022-08-03T07:55:50.211Z,965.86
2022-08-03T07:56:40.177Z,965.87
2022-08-03T07:57:30.170Z,965.80
2022-08-03T07:58:23.989Z,965.84
2022-08-03T07:59:10.170Z,965.84
2022-08-03T08:00:02.151Z,965.79
2022-08-03T08:00:50.165Z,965.80
2022-08-03T08:01:40.154Z,965.79
2022-08-03T08:02:30.137Z,965.81
2022-08-03T08:03:20.109Z,965.77
2022-08-03T08:04:10.100Z,965.81
2022-08-03T08:05:05.309Z,965.78
2022-08-03T08:05:51.070Z,965.77
2022-08-03T08:06:40.050Z,965.81
2022-08-03T08:07:30.059Z,965.80
2022-08-03T08:08:20.030Z,965.81
2022-08-03T08:09:10.029Z,965.80
2022-08-03T08:10:00.012Z,965.76
2022-08-03T08:10:58.405Z,965.78
2022-08-03T08:11:41.009Z,965.77
2022-08-03T08:12:29.988Z,965.77
2022-08-03T08:13:19.971Z,965.76
2022-08-03T08:14:09.967Z,965.74
2022-08-03T08:14:59.950Z,965.79
2022-08-03T08:15:49.979Z,965.70
2022-08-03T08:16:39.931Z,965.71
2022-08-03T08:17:29.930Z,965.78
2022-08-03T08:18:19.921Z,965.74
2022-08-03T08:19:10.011Z,965.74
2022-08-03T08:19:59.890Z,965.78
2022-08-03T08:20:49.880Z,965.75
2022-08-03T08:21:53.057Z,965.72
2022-08-03T08:22:31.492Z,965.74
2022-08-03T08:23:42.200Z,965.68
2022-08-03T08:24:11.069Z,965.65
2022-08-03T08:25:01.039Z,965.64
2022-08-03T08:25:49.842Z,965.67
2022-08-03T08:26:39.809Z,965.65
2022-08-03T08:28:29.234Z,965.63
2022-08-03T08:28:29.786Z,965.65
2022-08-03T08:29:10.782Z,965.61
2022-08-03T08:30:07.255Z,965.62
2022-08-03T08:30:50.790Z,965.66
2022-08-03T08:31:39.751Z,965.66
2022-08-03T08:32:29.751Z,965.68
2022-08-03T08:33:23.409Z,965.63
2022-08-03T08:34:09.731Z,965.65
2022-08-03T08:34:59.718Z,965.64
2022-08-03T08:35:49.712Z,965.67
2022-08-03T08:36:39.712Z,965.67
2022-08-03T08:37:29.691Z,965.67
2022-08-03T08:38:19.690Z,965.66
2022-08-03T08:39:09.691Z,965.68
2022-08-03T08:39:59.659Z,965.64
2022-08-03T08:40:49.664Z,965.66
2022-08-03T08:41:39.653Z,965.65
2022-08-03T08:42:30.639Z,965.66
2022-08-03T08:43:19.631Z,965.66
2022-08-03T08:44:09.621Z,965.64
2022-08-03T08:44:59.619Z,965.63
2022-08-03T08:45:49.599Z,965.65
2022-08-03T08:46:39.582Z,965.64
2022-08-03T08:47:29.580Z,965.62
2022-08-03T08:48:20.597Z,965.57
2022-08-03T08:49:09.616Z,965.58
2022-08-03T08:50:09.753Z,965.58
2022-08-03T08:50:50.543Z,965.55
2022-08-03T08:51:50.999Z,965.55
2022-08-03T08:52:32.154Z,965.56
2022-08-03T08:53:22.776Z,965.55
2022-08-03T08:54:10.511Z,965.62
2022-08-03T08:55:00.176Z,965.58
2022-08-03T08:55:58.611Z,965.56
2022-08-03T08:56:40.493Z,965.51
2022-08-03T08:57:42.426Z,965.54
2022-08-03T08:58:21.055Z,965.51
2022-08-03T08:59:09.454Z,965.51
2022-08-03T08:59:59.441Z,965.50
2022-08-03T09:00:49.486Z,965.50
2022-08-03T09:01:39.423Z,965.49
2022-08-03T09:02:29.461Z,965.50
2022-08-03T09:03:22.720Z,965.51
2022-08-03T09:04:10.401Z,965.54
2022-08-03T09:05:01.930Z,965.50
2022-08-03T09:05:55.715Z,965.47
2022-08-03T09:06:50.198Z,965.46
2022-08-03T09:07:30.587Z,965.44
2022-08-03T09:08:19.352Z,965.44
2022-08-03T09:09:09.342Z,965.41
2022-08-03T09:10:11.549Z,965.42
2022-08-03T09:10:50.344Z,965.43
2022-08-03T09:12:00.455Z,965.41
2022-08-03T09:12:41.443Z,965.42
2022-08-03T09:13:20.294Z,965.41
2022-08-03T09:14:09.283Z,965.44
2022-08-03T09:15:15.840Z,965.46
2022-08-03T09:15:52.777Z,965.46
2022-08-03T09:16:40.253Z,965.41
2022-08-03T09:17:29.251Z,965.42
2022-08-03T09:18:19.243Z,965.45
2022-08-03T09:19:09.244Z,965.45
2022-08-03T09:20:03.631Z,965.47
2022-08-03T09:20:49.222Z,965.43
2022-08-03T09:21:39.203Z,965.45
2022-08-03T09:22:29.194Z,965.47
2022-08-03T09:23:59.091Z,965.42
2022-08-03T09:24:20.606Z,965.45
2022-08-03T09:25:22.804Z,965.42
2022-08-03T09:25:50.178Z,965.39
2022-08-03T09:26:39.164Z,965.42
2022-08-03T09:27:29.144Z,965.45
2022-08-03T09:28:52.881Z,965.43
2022-08-03T09:29:14.375Z,965.40
2022-08-03T09:30:00.148Z,965.43
2022-08-03T09:30:49.112Z,965.42
2022-08-03T09:31:39.114Z,965.44
2022-08-03T09:32:29.093Z,965.38
2022-08-03T09:33:19.076Z,965.41
2022-08-03T09:34:09.075Z,965.34
2022-08-03T09:34:59.055Z,965.36
2022-08-03T09:35:54.186Z,965.34
2022-08-03T09:36:40.055Z,965.38
2022-08-03T09:38:08.569Z,965.36
2022-08-03T09:38:20.024Z,965.34
2022-08-03T09:39:09.016Z,965.37
2022-08-03T09:39:59.025Z,965.29
2022-08-03T09:40:49.004Z,965.31
2022-08-03T09:41:38.986Z,965.30
2022-08-03T09:42:28.995Z,965.28
2022-08-03T09:43:18.967Z,965.24
2022-08-03T09:44:08.975Z,965.27
2022-08-03T09:44:59.953Z,965.27
2022-08-03T09:45:48.946Z,965.23
2022-08-03T09:46:38.946Z,965.25
2022-08-03T09:47:28.927Z,965.21
2022-08-03T09:48:18.916Z,965.20
2022-08-03T09:49:11.938Z,965.20
2022-08-03T09:49:59.074Z,965.22
2022-08-03T09:50:57.020Z,965.26
2022-08-03T09:52:32.613Z,965.24
2022-08-03T09:52:38.134Z,965.26
2022-08-03T09:53:19.867Z,965.21
2022-08-03T09:54:16.350Z,965.22
2022-08-03T09:54:59.866Z,965.26
2022-08-03T09:56:33.620Z,965.24
2022-08-03T09:56:39.835Z,965.26
2022-08-03T09:57:28.827Z,965.28
2022-08-03T09:58:18.817Z,965.23
2022-08-03T09:59:08.829Z,965.21
2022-08-03T10:00:04.427Z,965.17
2022-08-03T10:00:49.818Z,965.17
2022-08-03T10:01:38.825Z,965.18
2022-08-03T10:02:28.778Z,965.19
2022-08-03T10:03:18.798Z,965.18
2022-08-03T10:04:08.758Z,965.16
2022-08-03T10:04:58.746Z,965.20
2022-08-03T10:05:48.778Z,965.15
2022-08-03T10:06:38.748Z,965.18
2022-08-03T10:07:28.719Z,965.15
2022-08-03T10:08:18.707Z,965.15
2022-08-03T10:09:08.708Z,965.16
2022-08-03T10:09:58.688Z,965.16
2022-08-03T10:10:49.689Z,965.15
2022-08-03T10:11:41.672Z,965.10
2022-08-03T10:12:28.699Z,965.13
2022-08-03T10:13:18.658Z,965.13
2022-08-03T10:14:08.649Z,965.13
2022-08-03T10:14:58.646Z,965.08
2022-08-03T10:16:22.592Z,965.10
2022-08-03T10:16:39.638Z,965.01
2022-08-03T10:17:28.622Z,964.99
2022-08-03T10:18:18.617Z,965.09
2022-08-03T10:19:08.598Z,965.11
2022-08-03T10:19:58.591Z,965.09
2022-08-03T10:20:48.587Z,965.06
2022-08-03T10:21:38.581Z,965.12
2022-08-03T10:22:28.569Z,965.05
2022-08-03T10:23:18.574Z,965.05